sensor_id;sensor_type;location;lat;lon;timestamp;pressure;altitude;pressure_sealevel;temperature;humidity
44457;BME280;30159;49.316;8.558;2023-09-08T00:02:18;100483.38;;;19.56;94.59
44457;BME280;30159;49.316;8.558;2023-09-08T00:04:45;100528.06;;;19.82;94.76
44457;BME280;30159;49.316;8.558;2023-09-08T00:07:12;100388.13;;;18.92;94.58
44457;BME280;30159;49.316;8.558;2023-09-08T00:09:38;100527.25;;;19.81;94.40
44457;BME280;30159;49.316;8.558;2023-09-08T00:12:06;100524.63;;;19.85;94.09
44457;BME280;30159;49.316;8.558;2023-09-08T00:14:33;100521.44;;;19.83;94.77
44457;BME280;30159;49.316;8.558;2023-09-08T00:17:00;100512.84;;;19.72;95.17
44457;BME280;30159;49.316;8.558;2023-09-08T00:19:27;100516.50;;;19.76;95.70
44457;BME280;30159;49.316;8.558;2023-09-08T00:21:53;100515.25;;;19.73;95.66
44457;BME280;30159;49.316;8.558;2023-09-08T00:24:20;100517.19;;;19.73;95.34
44457;BME280;30159;49.316;8.558;2023-09-08T00:26:47;100516.03;;;19.74;95.32
44457;BME280;30159;49.316;8.558;2023-09-08T00:29:14;100521.06;;;19.72;95.72
44457;BME280;30159;49.316;8.558;2023-09-08T00:31:41;100516.56;;;19.67;95.93
44457;BME280;30159;49.316;8.558;2023-09-08T00:34:08;100514.19;;;19.66;96.25
44457;BME280;30159;49.316;8.558;2023-09-08T00:36:35;100514.72;;;19.59;96.63
44457;BME280;30159;49.316;8.558;2023-09-08T00:39:01;100516.22;;;19.56;96.89
44457;BME280;30159;49.316;8.558;2023-09-08T00:41:28;100511.28;;;19.50;97.33
44457;BME280;30159;49.316;8.558;2023-09-08T00:43:54;100515.16;;;19.49;97.45
44457;BME280;30159;49.316;8.558;2023-09-08T00:46:23;100505.56;;;19.43;97.22
44457;BME280;30159;49.316;8.558;2023-09-08T00:48:52;100504.06;;;19.45;97.67
44457;BME280;30159;49.316;8.558;2023-09-08T00:51:20;100508.75;;;19.45;97.56
44457;BME280;30159;49.316;8.558;2023-09-08T00:53:47;100505.66;;;19.46;97.60
44457;BME280;30159;49.316;8.558;2023-09-08T00:56:13;100503.16;;;19.41;97.73
44457;BME280;30159;49.316;8.558;2023-09-08T00:58:40;100508.63;;;19.41;97.87
44457;BME280;30159;49.316;8.558;2023-09-08T01:01:07;100514.78;;;19.38;98.35
44457;BME280;30159;49.316;8.558;2023-09-08T01:03:35;100517.28;;;19.43;97.65
44457;BME280;30159;49.316;8.558;2023-09-08T01:06:02;100517.97;;;19.40;97.75
44457;BME280;30159;49.316;8.558;2023-09-08T01:08:29;100516.72;;;19.37;97.74
44457;BME280;30159;49.316;8.558;2023-09-08T01:10:56;100525.50;;;19.43;97.11
44457;BME280;30159;49.316;8.558;2023-09-08T01:13:23;100516.59;;;19.46;96.92
44457;BME280;30159;49.316;8.558;2023-09-08T01:15:49;100516.97;;;19.45;97.05
44457;BME280;30159;49.316;8.558;2023-09-08T01:18:16;100521.19;;;19.42;97.06
44457;BME280;30159;49.316;8.558;2023-09-08T01:21:08;100508.63;;;19.41;96.64
44457;BME280;30159;49.316;8.558;2023-09-08T01:23:53;100516.81;;;19.41;97.24
44457;BME280;30159;49.316;8.558;2023-09-08T01:26:27;100509.16;;;19.34;97.40
44457;BME280;30159;49.316;8.558;2023-09-08T01:28:58;100482.66;;;19.14;97.10
44457;BME280;30159;49.316;8.558;2023-09-08T01:31:26;100513.38;;;19.32;97.57
44457;BME280;30159;49.316;8.558;2023-09-08T01:33:52;100506.53;;;19.26;97.28
44457;BME280;30159;49.316;8.558;2023-09-08T01:36:19;100512.78;;;19.26;97.71
44457;BME280;30159;49.316;8.558;2023-09-08T01:38:46;100520.19;;;19.26;97.84
44457;BME280;30159;49.316;8.558;2023-09-08T01:41:12;100519.72;;;19.24;97.94
44457;BME280;30159;49.316;8.558;2023-09-08T01:43:41;100518.00;;;19.19;98.34
44457;BME280;30159;49.316;8.558;2023-09-08T01:46:07;100526.25;;;19.10;98.54
44457;BME280;30159;49.316;8.558;2023-09-08T01:48:34;100523.72;;;19.05;98.88
44457;BME280;30159;49.316;8.558;2023-09-08T01:51:00;100507.06;;;18.98;99.36
44457;BME280;30159;49.316;8.558;2023-09-08T01:53:27;100510.91;;;18.97;99.77
44457;BME280;30159;49.316;8.558;2023-09-08T01:55:53;100516.13;;;18.90;99.98
44457;BME280;30159;49.316;8.558;2023-09-08T01:58:20;100405.94;;;18.26;99.99
44457;BME280;30159;49.316;8.558;2023-09-08T02:00:49;100509.72;;;18.86;100.00
44457;BME280;30159;49.316;8.558;2023-09-08T02:03:16;100511.66;;;18.85;100.00
44457;BME280;30159;49.316;8.558;2023-09-08T02:05:43;100516.00;;;18.86;100.00
44457;BME280;30159;49.316;8.558;2023-09-08T02:08:10;100507.00;;;18.86;100.00
44457;BME280;30159;49.316;8.558;2023-09-08T02:10:39;100514.38;;;18.85;100.00
44457;BME280;30159;49.316;8.558;2023-09-08T02:13:06;100510.53;;;18.86;100.00
44457;BME280;30159;49.316;8.558;2023-09-08T02:15:34;100485.41;;;18.63;100.00
44457;BME280;30159;49.316;8.558;2023-09-08T02:18:03;100519.25;;;18.80;100.00
44457;BME280;30159;49.316;8.558;2023-09-08T02:20:29;100514.75;;;18.75;100.00
44457;BME280;30159;49.316;8.558;2023-09-08T02:22:57;100518.28;;;18.75;100.00
44457;BME280;30159;49.316;8.558;2023-09-08T02:25:24;100520.88;;;18.72;100.00
44457;BME280;30159;49.316;8.558;2023-09-08T02:27:50;100512.53;;;18.68;100.00
44457;BME280;30159;49.316;8.558;2023-09-08T02:30:17;100516.56;;;18.62;100.00
44457;BME280;30159;49.316;8.558;2023-09-08T02:32:44;100511.66;;;18.56;100.00
44457;BME280;30159;49.316;8.558;2023-09-08T02:35:12;100516.94;;;18.61;100.00
44457;BME280;30159;49.316;8.558;2023-09-08T02:37:39;100513.28;;;18.48;100.00
44457;BME280;30159;49.316;8.558;2023-09-08T02:40:07;100514.25;;;18.52;100.00
44457;BME280;30159;49.316;8.558;2023-09-08T02:42:33;100517.63;;;18.49;100.00
44457;BME280;30159;49.316;8.558;2023-09-08T02:45:00;100521.69;;;18.43;100.00
44457;BME280;30159;49.316;8.558;2023-09-08T02:47:27;100520.09;;;18.42;100.00
44457;BME280;30159;49.316;8.558;2023-09-08T02:49:54;100504.41;;;18.30;100.00
44457;BME280;30159;49.316;8.558;2023-09-08T02:52:21;100519.34;;;18.32;100.00
44457;BME280;30159;49.316;8.558;2023-09-08T02:54:48;100509.72;;;18.26;100.00
44457;BME280;30159;49.316;8.558;2023-09-08T02:57:15;100509.91;;;18.21;100.00
44457;BME280;30159;49.316;8.558;2023-09-08T02:59:41;100506.22;;;18.17;100.00
44457;BME280;30159;49.316;8.558;2023-09-08T03:02:08;100510.25;;;18.11;100.00
44457;BME280;30159;49.316;8.558;2023-09-08T03:04:34;100514.13;;;18.10;100.00
44457;BME280;30159;49.316;8.558;2023-09-08T03:07:01;100521.00;;;18.16;100.00
44457;BME280;30159;49.316;8.558;2023-09-08T03:09:29;100526.47;;;18.16;100.00
44457;BME280;30159;49.316;8.558;2023-09-08T03:11:55;100516.69;;;18.06;100.00
44457;BME280;30159;49.316;8.558;2023-09-08T03:14:22;100522.97;;;18.07;100.00
44457;BME280;30159;49.316;8.558;2023-09-08T03:16:48;100517.50;;;18.07;100.00
44457;BME280;30159;49.316;8.558;2023-09-08T03:19:15;100524.56;;;18.08;100.00
44457;BME280;30159;49.316;8.558;2023-09-08T03:21:42;100519.28;;;18.03;100.00
44457;BME280;30159;49.316;8.558;2023-09-08T03:24:08;100511.28;;;17.98;100.00
44457;BME280;30159;49.316;8.558;2023-09-08T03:26:36;100520.25;;;17.98;100.00
44457;BME280;30159;49.316;8.558;2023-09-08T03:29:05;100527.16;;;17.96;100.00
44457;BME280;30159;49.316;8.558;2023-09-08T03:31:31;100504.75;;;17.81;100.00
44457;BME280;30159;49.316;8.558;2023-09-08T03:33:58;100534.59;;;17.86;100.00
44457;BME280;30159;49.316;8.558;2023-09-08T03:36:24;100512.41;;;17.79;100.00
44457;BME280;30159;49.316;8.558;2023-09-08T03:38:51;100521.59;;;17.83;100.00
44457;BME280;30159;49.316;8.558;2023-09-08T03:41:18;100527.16;;;17.78;100.00
44457;BME280;30159;49.316;8.558;2023-09-08T03:43:46;100523.50;;;17.74;100.00
44457;BME280;30159;49.316;8.558;2023-09-08T03:46:14;100523.03;;;17.72;100.00
44457;BME280;30159;49.316;8.558;2023-09-08T03:48:41;100518.69;;;17.71;100.00
44457;BME280;30159;49.316;8.558;2023-09-08T03:51:07;100528.66;;;17.67;100.00
44457;BME280;30159;49.316;8.558;2023-09-08T03:53:34;100533.63;;;17.65;100.00
44457;BME280;30159;49.316;8.558;2023-09-08T03:56:01;100532.03;;;17.64;100.00
44457;BME280;30159;49.316;8.558;2023-09-08T03:58:27;100535.09;;;17.62;100.00
44457;BME280;30159;49.316;8.558;2023-09-08T04:00:55;100515.84;;;17.50;100.00
44457;BME280;30159;49.316;8.558;2023-09-08T04:03:22;100529.78;;;17.57;100.00
44457;BME280;30159;49.316;8.558;2023-09-08T04:05:48;100535.72;;;17.59;100.00
44457;BME280;30159;49.316;8.558;2023-09-08T04:08:15;100537.50;;;17.55;100.00
44457;BME280;30159;49.316;8.558;2023-09-08T04:10:42;100531.25;;;17.46;100.00
44457;BME280;30159;49.316;8.558;2023-09-08T04:13:08;100540.72;;;17.48;100.00
44457;BME280;30159;49.316;8.558;2023-09-08T04:15:35;100545.69;;;17.55;100.00
44457;BME280;30159;49.316;8.558;2023-09-08T04:18:03;100377.66;;;16.55;100.00
44457;BME280;30159;49.316;8.558;2023-09-08T04:20:30;100538.94;;;17.53;100.00
44457;BME280;30159;49.316;8.558;2023-09-08T04:22:56;100389.50;;;16.50;100.00
44457;BME280;30159;49.316;8.558;2023-09-08T04:25:23;100546.97;;;17.40;100.00
44457;BME280;30159;49.316;8.558;2023-09-08T04:27:50;100546.00;;;17.36;100.00
44457;BME280;30159;49.316;8.558;2023-09-08T04:30:17;100535.91;;;17.28;100.00
44457;BME280;30159;49.316;8.558;2023-09-08T04:32:44;100550.66;;;17.27;100.00
44457;BME280;30159;49.316;8.558;2023-09-08T04:35:12;100554.03;;;17.33;100.00
44457;BME280;30159;49.316;8.558;2023-09-08T04:37:38;100542.97;;;17.29;100.00
44457;BME280;30159;49.316;8.558;2023-09-08T04:40:06;100551.47;;;17.27;100.00
44457;BME280;30159;49.316;8.558;2023-09-08T04:42:33;100530.78;;;17.09;100.00
44457;BME280;30159;49.316;8.558;2023-09-08T04:45:00;100557.25;;;17.26;100.00
44457;BME280;30159;49.316;8.558;2023-09-08T04:47:27;100555.16;;;17.23;100.00
44457;BME280;30159;49.316;8.558;2023-09-08T04:49:53;100375.06;;;16.15;100.00
44457;BME280;30159;49.316;8.558;2023-09-08T04:52:21;100562.03;;;17.29;100.00
44457;BME280;30159;49.316;8.558;2023-09-08T04:54:48;100520.03;;;17.04;100.00
44457;BME280;30159;49.316;8.558;2023-09-08T04:57:14;100562.03;;;17.29;100.00
44457;BME280;30159;49.316;8.558;2023-09-08T04:59:41;100567.66;;;17.24;100.00
44457;BME280;30159;49.316;8.558;2023-09-08T05:02:08;100550.34;;;17.11;100.00
44457;BME280;30159;49.316;8.558;2023-09-08T05:04:34;100575.66;;;17.29;100.00
44457;BME280;30159;49.316;8.558;2023-09-08T05:07:01;100544.22;;;17.05;100.00
44457;BME280;30159;49.316;8.558;2023-09-08T05:09:29;100575.53;;;17.25;100.00
44457;BME280;30159;49.316;8.558;2023-09-08T05:11:55;100576.63;;;17.24;100.00
44457;BME280;30159;49.316;8.558;2023-09-08T05:14:24;100549.38;;;17.16;100.00
44457;BME280;30159;49.316;8.558;2023-09-08T05:16:51;100571.03;;;17.30;100.00
44457;BME280;30159;49.316;8.558;2023-09-08T05:19:21;100566.84;;;17.41;100.00
44457;BME280;30159;49.316;8.558;2023-09-08T05:21:50;100572.63;;;17.48;100.00
44457;BME280;30159;49.316;8.558;2023-09-08T05:24:16;100572.13;;;17.55;100.00
44457;BME280;30159;49.316;8.558;2023-09-08T05:26:44;100579.34;;;17.68;100.00
44457;BME280;30159;49.316;8.558;2023-09-08T05:29:11;100574.22;;;17.75;100.00
44457;BME280;30159;49.316;8.558;2023-09-08T05:31:38;100580.81;;;17.83;100.00
44457;BME280;30159;49.316;8.558;2023-09-08T05:34:04;100571.47;;;18.01;100.00
44457;BME280;30159;49.316;8.558;2023-09-08T05:36:31;100578.00;;;18.18;100.00
44457;BME280;30159;49.316;8.558;2023-09-08T05:39:01;100581.31;;;18.32;100.00
44457;BME280;30159;49.316;8.558;2023-09-08T05:41:27;100544.06;;;18.27;100.00
44457;BME280;30159;49.316;8.558;2023-09-08T05:43:56;100576.25;;;18.60;100.00
44457;BME280;30159;49.316;8.558;2023-09-08T05:46:23;100578.31;;;18.63;100.00
44457;BME280;30159;49.316;8.558;2023-09-08T05:48:49;100568.88;;;18.52;100.00
44457;BME280;30159;49.316;8.558;2023-09-08T05:51:16;100591.16;;;18.63;100.00
44457;BME280;30159;49.316;8.558;2023-09-08T05:53:42;100585.00;;;18.74;100.00
44457;BME280;30159;49.316;8.558;2023-09-08T05:56:09;100595.28;;;19.07;100.00
44457;BME280;30159;49.316;8.558;2023-09-08T05:58:36;100590.16;;;19.27;100.00
44457;BME280;30159;49.316;8.558;2023-09-08T06:01:04;100595.94;;;19.46;100.00
44457;BME280;30159;49.316;8.558;2023-09-08T06:03:31;100586.09;;;19.54;100.00
44457;BME280;30159;49.316;8.558;2023-09-08T06:05:57;100564.72;;;19.68;100.00
44457;BME280;30159;49.316;8.558;2023-09-08T06:08:24;100592.22;;;20.05;100.00
44457;BME280;30159;49.316;8.558;2023-09-08T06:10:51;100575.41;;;20.65;100.00
44457;BME280;30159;49.316;8.558;2023-09-08T06:13:17;100593.53;;;22.47;95.86
44457;BME280;30159;49.316;8.558;2023-09-08T06:15:44;100599.06;;;24.84;81.34
44457;BME280;30159;49.316;8.558;2023-09-08T06:18:12;100597.50;;;27.15;69.12
44457;BME280;30159;49.316;8.558;2023-09-08T06:20:44;100581.66;;;28.67;63.36
44457;BME280;30159;49.316;8.558;2023-09-08T06:23:10;100598.44;;;30.29;59.45
44457;BME280;30159;49.316;8.558;2023-09-08T06:25:37;100586.13;;;31.47;57.03
44457;BME280;30159;49.316;8.558;2023-09-08T06:28:04;100593.91;;;32.41;54.79
44457;BME280;30159;49.316;8.558;2023-09-08T06:30:30;100573.16;;;32.86;53.23
44457;BME280;30159;49.316;8.558;2023-09-08T06:32:57;100589.22;;;33.42;52.48
44457;BME280;30159;49.316;8.558;2023-09-08T06:35:25;100594.78;;;33.82;51.18
44457;BME280;30159;49.316;8.558;2023-09-08T06:37:52;100595.59;;;34.31;51.07
44457;BME280;30159;49.316;8.558;2023-09-08T06:40:19;100601.75;;;34.88;49.92
44457;BME280;30159;49.316;8.558;2023-09-08T06:42:45;100594.75;;;35.38;48.72
44457;BME280;30159;49.316;8.558;2023-09-08T06:45:12;100604.66;;;35.56;48.63
44457;BME280;30159;49.316;8.558;2023-09-08T06:47:39;100604.88;;;35.49;49.03
44457;BME280;30159;49.316;8.558;2023-09-08T06:50:06;100590.00;;;36.16;48.20
44457;BME280;30159;49.316;8.558;2023-09-08T06:52:34;100590.66;;;36.67;46.53
44457;BME280;30159;49.316;8.558;2023-09-08T06:55:01;100590.50;;;36.71;46.38
44457;BME280;30159;49.316;8.558;2023-09-08T06:57:28;100589.47;;;36.78;47.45
44457;BME280;30159;49.316;8.558;2023-09-08T06:59:54;100585.03;;;36.89;46.44
44457;BME280;30159;49.316;8.558;2023-09-08T07:02:21;100576.34;;;36.75;46.71
44457;BME280;30159;49.316;8.558;2023-09-08T07:04:48;100584.25;;;36.89;46.13
44457;BME280;30159;49.316;8.558;2023-09-08T07:07:14;100564.00;;;37.16;45.94
44457;BME280;30159;49.316;8.558;2023-09-08T07:09:42;100585.19;;;37.30;45.58
44457;BME280;30159;49.316;8.558;2023-09-08T07:12:09;100579.91;;;37.63;45.83
44457;BME280;30159;49.316;8.558;2023-09-08T07:14:36;100576.06;;;37.79;44.91
44457;BME280;30159;49.316;8.558;2023-09-08T07:17:03;100564.84;;;37.98;44.58
44457;BME280;30159;49.316;8.558;2023-09-08T07:19:30;100581.72;;;38.56;44.27
44457;BME280;30159;49.316;8.558;2023-09-08T07:21:56;100583.59;;;37.91;44.21
44457;BME280;30159;49.316;8.558;2023-09-08T07:24:23;100584.06;;;38.58;44.18
44457;BME280;30159;49.316;8.558;2023-09-08T07:26:51;100583.81;;;38.06;43.66
44457;BME280;30159;49.316;8.558;2023-09-08T07:29:18;100564.84;;;37.26;43.65
44457;BME280;30159;49.316;8.558;2023-09-08T07:31:44;100586.09;;;37.27;44.30
44457;BME280;30159;49.316;8.558;2023-09-08T07:34:11;100585.50;;;34.83;45.85
44457;BME280;30159;49.316;8.558;2023-09-08T07:36:38;100582.22;;;32.70;49.44
44457;BME280;30159;49.316;8.558;2023-09-08T07:39:04;100579.88;;;29.38;56.13
44457;BME280;30159;49.316;8.558;2023-09-08T07:41:31;100584.78;;;28.23;60.33
44457;BME280;30159;49.316;8.558;2023-09-08T07:43:59;100590.13;;;26.70;63.20
44457;BME280;30159;49.316;8.558;2023-09-08T07:46:26;100589.75;;;25.53;66.19
44457;BME280;30159;49.316;8.558;2023-09-08T07:48:52;100595.88;;;24.82;68.67
44457;BME280;30159;49.316;8.558;2023-09-08T07:51:19;100601.69;;;24.27;71.67
44457;BME280;30159;49.316;8.558;2023-09-08T07:53:46;100591.53;;;24.31;72.41
44457;BME280;30159;49.316;8.558;2023-09-08T07:56:12;100600.63;;;24.12;73.89
44457;BME280;30159;49.316;8.558;2023-09-08T07:58:39;100593.78;;;23.83;74.03
44457;BME280;30159;49.316;8.558;2023-09-08T08:01:07;100594.72;;;23.91;75.35
44457;BME280;30159;49.316;8.558;2023-09-08T08:03:34;100591.56;;;24.12;75.46
44457;BME280;30159;49.316;8.558;2023-09-08T08:06:02;100584.03;;;24.09;75.15
44457;BME280;30159;49.316;8.558;2023-09-08T08:08:28;100596.84;;;24.21;74.78
44457;BME280;30159;49.316;8.558;2023-09-08T08:10:55;100592.00;;;24.37;74.69
44457;BME280;30159;49.316;8.558;2023-09-08T08:13:22;100599.03;;;24.11;74.13
44457;BME280;30159;49.316;8.558;2023-09-08T08:15:49;100537.84;;;23.40;75.80
44457;BME280;30159;49.316;8.558;2023-09-08T08:18:16;100588.50;;;23.74;76.52
44457;BME280;30159;49.316;8.558;2023-09-08T08:20:43;100596.31;;;23.92;75.27
44457;BME280;30159;49.316;8.558;2023-09-08T08:23:10;100598.78;;;23.77;76.49
44457;BME280;30159;49.316;8.558;2023-09-08T08:25:36;100595.81;;;23.86;76.71
44457;BME280;30159;49.316;8.558;2023-09-08T08:28:04;100588.06;;;23.92;75.81
44457;BME280;30159;49.316;8.558;2023-09-08T08:30:30;100590.31;;;23.67;76.63
44457;BME280;30159;49.316;8.558;2023-09-08T08:32:57;100590.97;;;23.60;77.58
44457;BME280;30159;49.316;8.558;2023-09-08T08:35:25;100592.53;;;23.61;77.30
44457;BME280;30159;49.316;8.558;2023-09-08T08:37:52;100589.38;;;23.59;77.38
44457;BME280;30159;49.316;8.558;2023-09-08T08:40:19;100588.50;;;23.55;77.50
44457;BME280;30159;49.316;8.558;2023-09-08T08:42:46;100587.84;;;23.62;76.67
44457;BME280;30159;49.316;8.558;2023-09-08T08:45:13;100584.97;;;23.54;77.59
44457;BME280;30159;49.316;8.558;2023-09-08T08:47:44;100583.44;;;23.57;77.76
44457;BME280;30159;49.316;8.558;2023-09-08T08:50:12;100583.34;;;23.53;77.84
44457;BME280;30159;49.316;8.558;2023-09-08T08:52:40;100584.75;;;23.83;78.85
44457;BME280;30159;49.316;8.558;2023-09-08T08:55:07;100580.06;;;24.06;76.82
44457;BME280;30159;49.316;8.558;2023-09-08T08:57:36;100581.94;;;24.25;76.44
44457;BME280;30159;49.316;8.558;2023-09-08T09:00:05;100587.25;;;24.14;76.27
44457;BME280;30159;49.316;8.558;2023-09-08T09:02:35;100564.97;;;24.00;77.18
44457;BME280;30159;49.316;8.558;2023-09-08T09:05:03;100571.13;;;24.36;76.55
44457;BME280;30159;49.316;8.558;2023-09-08T09:07:30;100582.50;;;24.57;76.41
44457;BME280;30159;49.316;8.558;2023-09-08T09:09:59;100581.41;;;24.62;74.99
44457;BME280;30159;49.316;8.558;2023-09-08T09:12:26;100581.44;;;24.66;74.83
44457;BME280;30159;49.316;8.558;2023-09-08T09:14:53;100581.19;;;24.74;75.13
44457;BME280;30159;49.316;8.558;2023-09-08T09:17:20;100579.22;;;24.75;74.64
44457;BME280;30159;49.316;8.558;2023-09-08T09:19:46;100551.63;;;24.48;75.32
44457;BME280;30159;49.316;8.558;2023-09-08T09:22:13;100586.53;;;24.64;75.64
44457;BME280;30159;49.316;8.558;2023-09-08T09:24:41;100583.47;;;24.46;76.14
44457;BME280;30159;49.316;8.558;2023-09-08T09:27:10;100583.06;;;24.67;75.92
44457;BME280;30159;49.316;8.558;2023-09-08T09:29:44;100586.69;;;24.74;75.55
44457;BME280;30159;49.316;8.558;2023-09-08T09:32:12;100590.56;;;24.70;76.43
44457;BME280;30159;49.316;8.558;2023-09-08T09:34:47;100583.63;;;24.79;75.52
44457;BME280;30159;49.316;8.558;2023-09-08T09:37:15;100571.03;;;24.82;75.87
44457;BME280;30159;49.316;8.558;2023-09-08T09:39:41;100584.69;;;24.98;75.76
44457;BME280;30159;49.316;8.558;2023-09-08T09:42:10;100581.78;;;25.17;75.28
44457;BME280;30159;49.316;8.558;2023-09-08T09:44:36;100583.25;;;25.38;75.80
44457;BME280;30159;49.316;8.558;2023-09-08T09:47:04;100583.34;;;25.45;74.73
44457;BME280;30159;49.316;8.558;2023-09-08T09:49:32;100582.13;;;25.42;74.10
44457;BME280;30159;49.316;8.558;2023-09-08T09:52:07;100581.94;;;25.28;75.05
44457;BME280;30159;49.316;8.558;2023-09-08T09:54:34;100571.28;;;25.27;73.17
44457;BME280;30159;49.316;8.558;2023-09-08T09:57:01;100569.59;;;25.18;75.39
44457;BME280;30159;49.316;8.558;2023-09-08T09:59:30;100572.81;;;25.24;75.33
44457;BME280;30159;49.316;8.558;2023-09-08T10:01:57;100567.69;;;25.22;74.23
44457;BME280;30159;49.316;8.558;2023-09-08T10:04:23;100526.34;;;24.99;73.74
44457;BME280;30159;49.316;8.558;2023-09-08T10:06:50;100565.38;;;25.28;74.06
44457;BME280;30159;49.316;8.558;2023-09-08T10:09:18;100561.28;;;25.49;74.07
44457;BME280;30159;49.316;8.558;2023-09-08T10:11:47;100559.41;;;25.56;73.49
44457;BME280;30159;49.316;8.558;2023-09-08T10:14:14;100550.31;;;25.56;73.42
44457;BME280;30159;49.316;8.558;2023-09-08T10:16:44;100549.28;;;25.68;73.16
44457;BME280;30159;49.316;8.558;2023-09-08T10:19:15;100547.78;;;25.77;72.34
44457;BME280;30159;49.316;8.558;2023-09-08T10:21:45;100547.84;;;25.84;72.06
44457;BME280;30159;49.316;8.558;2023-09-08T10:24:15;100525.75;;;25.84;71.64
44457;BME280;30159;49.316;8.558;2023-09-08T10:26:44;100552.09;;;26.12;72.28
44457;BME280;30159;49.316;8.558;2023-09-08T10:29:13;100560.91;;;26.25;72.45
44457;BME280;30159;49.316;8.558;2023-09-08T10:31:41;100505.88;;;26.09;71.66
44457;BME280;30159;49.316;8.558;2023-09-08T10:34:09;100548.38;;;26.42;70.78
44457;BME280;30159;49.316;8.558;2023-09-08T10:36:36;100550.78;;;26.47;70.83
44457;BME280;30159;49.316;8.558;2023-09-08T10:39:29;100542.97;;;26.56;69.88
44457;BME280;30159;49.316;8.558;2023-09-08T10:42:22;100550.22;;;26.72;70.84
44457;BME280;30159;49.316;8.558;2023-09-08T10:44:58;100541.53;;;26.80;69.68
44457;BME280;30159;49.316;8.558;2023-09-08T10:47:31;100542.25;;;26.66;69.30
44457;BME280;30159;49.316;8.558;2023-09-08T10:50:01;100500.91;;;26.36;69.44
44457;BME280;30159;49.316;8.558;2023-09-08T10:52:30;100545.00;;;26.66;69.82
44457;BME280;30159;49.316;8.558;2023-09-08T10:54:58;100538.28;;;26.60;69.00
44457;BME280;30159;49.316;8.558;2023-09-08T10:57:26;100539.03;;;26.57;69.36
44457;BME280;30159;49.316;8.558;2023-09-08T10:59:54;100533.97;;;26.70;69.76
44457;BME280;30159;49.316;8.558;2023-09-08T11:02:35;100520.97;;;26.78;68.85
44457;BME280;30159;49.316;8.558;2023-09-08T11:05:04;100544.00;;;26.96;68.40
44457;BME280;30159;49.316;8.558;2023-09-08T11:07:33;100534.53;;;26.97;67.66
44457;BME280;30159;49.316;8.558;2023-09-08T11:10:00;100517.06;;;26.89;67.73
44457;BME280;30159;49.316;8.558;2023-09-08T11:12:27;100516.31;;;26.96;68.09
44457;BME280;30159;49.316;8.558;2023-09-08T11:14:54;100533.69;;;26.89;67.98
44457;BME280;30159;49.316;8.558;2023-09-08T11:17:23;100528.13;;;26.82;67.84
44457;BME280;30159;49.316;8.558;2023-09-08T11:19:51;100525.00;;;26.91;67.83
44457;BME280;30159;49.316;8.558;2023-09-08T11:22:21;100520.28;;;26.95;69.05
44457;BME280;30159;49.316;8.558;2023-09-08T11:24:49;100518.72;;;26.98;68.34
44457;BME280;30159;49.316;8.558;2023-09-08T11:27:16;100382.97;;;26.03;68.27
44457;BME280;30159;49.316;8.558;2023-09-08T11:29:44;100520.28;;;26.99;68.00
44457;BME280;30159;49.316;8.558;2023-09-08T11:32:12;100523.53;;;27.11;68.46
44457;BME280;30159;49.316;8.558;2023-09-08T11:34:39;100509.25;;;27.09;68.01
44457;BME280;30159;49.316;8.558;2023-09-08T11:37:08;100514.94;;;27.35;67.84
44457;BME280;30159;49.316;8.558;2023-09-08T11:39:37;100512.19;;;27.52;67.66
44457;BME280;30159;49.316;8.558;2023-09-08T11:42:05;100514.19;;;27.63;67.06
44457;BME280;30159;49.316;8.558;2023-09-08T11:44:32;100498.38;;;27.63;66.45
44457;BME280;30159;49.316;8.558;2023-09-08T11:47:00;100510.59;;;27.55;66.37
44457;BME280;30159;49.316;8.558;2023-09-08T11:49:33;100481.69;;;27.38;66.76
44457;BME280;30159;49.316;8.558;2023-09-08T11:52:00;100501.91;;;27.57;67.15
44457;BME280;30159;49.316;8.558;2023-09-08T11:54:28;100495.97;;;27.54;66.53
44457;BME280;30159;49.316;8.558;2023-09-08T11:56:57;100494.00;;;27.51;66.68
44457;BME280;30159;49.316;8.558;2023-09-08T11:59:25;100494.38;;;27.46;66.43
44457;BME280;30159;49.316;8.558;2023-09-08T12:01:52;100488.47;;;27.59;67.25
44457;BME280;30159;49.316;8.558;2023-09-08T12:04:19;100489.66;;;27.65;66.99
44457;BME280;30159;49.316;8.558;2023-09-08T12:06:46;100496.00;;;27.76;66.63
44457;BME280;30159;49.316;8.558;2023-09-08T12:09:13;100371.56;;;26.96;66.32
44457;BME280;30159;49.316;8.558;2023-09-08T12:11:40;100476.97;;;27.71;66.49
44457;BME280;30159;49.316;8.558;2023-09-08T12:14:10;100488.88;;;27.75;65.57
44457;BME280;30159;49.316;8.558;2023-09-08T12:16:37;100480.97;;;27.77;65.62
44457;BME280;30159;49.316;8.558;2023-09-08T12:19:04;100485.72;;;27.94;66.40
44457;BME280;30159;49.316;8.558;2023-09-08T12:21:31;100490.09;;;28.03;66.73
44457;BME280;30159;49.316;8.558;2023-09-08T12:23:58;100479.00;;;28.03;65.93
44457;BME280;30159;49.316;8.558;2023-09-08T12:26:25;100464.34;;;27.99;65.83
44457;BME280;30159;49.316;8.558;2023-09-08T12:28:52;100489.69;;;28.01;64.69
44457;BME280;30159;49.316;8.558;2023-09-08T12:31:20;100481.38;;;28.08;65.10
44457;BME280;30159;49.316;8.558;2023-09-08T12:33:47;100478.59;;;27.97;65.19
44457;BME280;30159;49.316;8.558;2023-09-08T12:36:15;100485.75;;;27.84;65.51
44457;BME280;30159;49.316;8.558;2023-09-08T12:38:47;100471.47;;;27.92;66.20
44457;BME280;30159;49.316;8.558;2023-09-08T12:41:13;100440.97;;;27.74;66.40
44457;BME280;30159;49.316;8.558;2023-09-08T12:43:40;100478.22;;;28.06;64.79
44457;BME280;30159;49.316;8.558;2023-09-08T12:46:07;100484.53;;;28.17;64.57
44457;BME280;30159;49.316;8.558;2023-09-08T12:48:35;100477.00;;;28.25;64.09
44457;BME280;30159;49.316;8.558;2023-09-08T12:51:01;100473.44;;;28.24;64.98